Terminal Aerodrome Forecast
Issued by NWS

Home | Current Version | Previous Version | Graphics & Text | Print | Product List | Glossary On
Versions: 1 2 3 4 5 6 7 8 9 10 11 12 13
000
FTUS43 KGRB 251100
TAFCWA
TAF
KCWA 251125Z 2512/2612 32004KT P6SM BKN110
     FM251600 34005KT P6SM SCT035 BKN080
     FM260700 35005KT P6SM SCT030 SCT140=

USA.gov is the U.S. government's official web portal to all federal, state and local government web resources and services.